createdAt,value
2022-10-07T00:00:39.141Z,22.9
2022-10-07T00:01:43.506Z,23.3
2022-10-07T00:02:48.196Z,22.2
2022-10-07T00:03:52.784Z,21.5
2022-10-07T00:04:57.321Z,23.2
2022-10-07T00:06:01.805Z,22
2022-10-07T00:07:11.643Z,24.1
2022-10-07T00:08:21.679Z,23.3
2022-10-07T00:09:26.205Z,22.4
2022-10-07T00:10:30.701Z,24.3
2022-10-07T00:11:38.196Z,22.8
2022-10-07T00:14:32.560Z,22.8
2022-10-07T00:15:37.128Z,23.1
2022-10-07T00:16:45.480Z,22.8
2022-10-07T00:17:49.972Z,24.3
2022-10-07T00:18:54.968Z,22.2
2022-10-07T00:19:59.555Z,22.2
2022-10-07T00:21:04.260Z,22.9
2022-10-07T00:22:13.617Z,23
2022-10-07T00:23:22.994Z,26.3
2022-10-07T00:24:32.398Z,25.1
2022-10-07T00:25:37.248Z,22.2
2022-10-07T00:26:41.847Z,22.1
2022-10-07T00:27:46.602Z,21.8
2022-10-07T00:28:50.755Z,23.7
2022-10-07T00:29:55.420Z,23.8
2022-10-07T00:30:59.901Z,22.7
2022-10-07T00:32:04.408Z,23.3
2022-10-07T00:33:08.896Z,22
2022-10-07T00:34:13.315Z,21
2022-10-07T00:35:18.179Z,21.1
2022-10-07T00:36:22.646Z,23.2
2022-10-07T00:37:29.469Z,22.8
2022-10-07T00:38:33.882Z,26.2
2022-10-07T00:42:28.745Z,25.1
2022-10-07T00:43:37.293Z,24.3
2022-10-07T00:44:41.996Z,26.5
2022-10-07T00:45:46.281Z,24.7
2022-10-07T00:46:50.693Z,26.2
2022-10-07T00:47:58.401Z,25.9
2022-10-07T00:49:02.920Z,25.4
2022-10-07T00:50:07.717Z,25.6
2022-10-07T00:51:11.962Z,31.5
2022-10-07T00:52:16.246Z,34.2
2022-10-07T00:53:20.425Z,36.6
2022-10-07T00:54:26.681Z,37.9
2022-10-07T00:55:31.084Z,36.2
2022-10-07T00:56:37.886Z,35.4
2022-10-07T00:57:42.578Z,36.2
2022-10-07T00:58:46.666Z,34.2
2022-10-07T00:59:52.316Z,33.5
2022-10-07T01:00:56.965Z,37.9
2022-10-07T01:02:04.000Z,37.9
2022-10-07T01:03:08.152Z,35.9
2022-10-07T01:04:12.624Z,36.5
2022-10-07T01:05:17.072Z,35.9
2022-10-07T01:06:21.651Z,34.8
2022-10-07T01:09:15.992Z,32.7
2022-10-07T01:13:10.737Z,31.9
2022-10-07T01:14:16.044Z,33
2022-10-07T01:15:30.685Z,29.2
2022-10-07T01:16:40.017Z,29.6
2022-10-07T01:17:51.885Z,31.5
2022-10-07T01:19:01.145Z,30.7
2022-10-07T01:20:10.512Z,27.7
2022-10-07T01:21:27.753Z,29.2
2022-10-07T01:22:42.247Z,33
2022-10-07T01:23:46.566Z,30.7
2022-10-07T01:25:01.296Z,30
2022-10-07T01:26:14.348Z,28.9
2022-10-07T01:27:29.244Z,27.6
2022-10-07T01:28:34.001Z,33.7
2022-10-07T01:29:38.224Z,30.6
2022-10-07T01:30:42.659Z,30.1
2022-10-07T01:31:47.004Z,29.3
2022-10-07T01:32:56.636Z,27.5
2022-10-07T01:34:00.957Z,26.9
2022-10-07T01:35:05.156Z,28.6
2022-10-07T01:36:12.160Z,28.4
2022-10-07T01:37:16.461Z,26.3
2022-10-07T01:38:20.902Z,27
2022-10-07T01:39:25.240Z,26.1
2022-10-07T01:40:34.326Z,25.9
2022-10-07T01:41:43.677Z,27.7
2022-10-07T01:42:48.261Z,27.4
2022-10-07T01:43:52.684Z,26.5
2022-10-07T01:44:56.917Z,25
2022-10-07T01:46:01.209Z,25.3
2022-10-07T01:47:05.817Z,25.9
2022-10-07T01:48:10.565Z,27.8
2022-10-07T01:49:15.791Z,30.2
2022-10-07T01:50:20.089Z,27.1
2022-10-07T01:51:24.249Z,27.4
2022-10-07T01:52:28.581Z,27.3
2022-10-07T01:53:37.881Z,27.8
2022-10-07T01:54:47.273Z,27.8
2022-10-07T01:55:59.273Z,26
2022-10-07T01:57:11.621Z,27.2
2022-10-07T01:58:26.076Z,26.3
2022-10-07T01:59:40.497Z,25.5
2022-10-07T02:00:52.705Z,28.5
2022-10-07T02:01:57.081Z,24.8
2022-10-07T02:03:13.415Z,24.2
2022-10-07T02:04:27.829Z,27.6
2022-10-07T02:05:32.320Z,23.9
2022-10-07T02:08:32.085Z,26.1
2022-10-07T02:09:36.657Z,26.5
2022-10-07T02:10:46.353Z,24.4
2022-10-07T02:12:00.386Z,29.2
2022-10-07T02:13:12.785Z,29.3
2022-10-07T02:14:17.388Z,30.6
2022-10-07T02:15:21.717Z,29.5
2022-10-07T02:16:31.137Z,27
2022-10-07T02:17:41.617Z,28.4
2022-10-07T02:18:53.039Z,30.5
2022-10-07T02:19:57.305Z,32.1
2022-10-07T02:21:02.737Z,32.5
2022-10-07T02:22:07.641Z,36.1
2022-10-07T02:23:14.343Z,38.9
2022-10-07T02:24:18.674Z,38.3
2022-10-07T02:25:23.509Z,38.8
2022-10-07T02:26:27.809Z,37
2022-10-07T02:27:36.076Z,38.9
2022-10-07T02:28:40.603Z,33.9
2022-10-07T02:29:44.809Z,36.3
2022-10-07T02:30:49.164Z,34.2
2022-10-07T02:31:53.529Z,33.7
2022-10-07T02:32:57.741Z,32.2
2022-10-07T02:34:02.054Z,33.8
2022-10-07T02:35:10.218Z,35.3
2022-10-07T02:36:23.948Z,33
2022-10-07T02:37:28.301Z,34.4
2022-10-07T02:38:32.585Z,33
2022-10-07T02:39:36.834Z,36.3
2022-10-07T02:40:41.165Z,30.8
2022-10-07T02:41:56.241Z,31.4
2022-10-07T02:43:08.218Z,31.9
2022-10-07T02:44:20.229Z,32.8
2022-10-07T02:45:37.842Z,29.6
2022-10-07T02:46:45.302Z,30.4
2022-10-07T02:47:49.457Z,30
2022-10-07T02:48:56.338Z,29.9
2022-10-07T02:51:50.461Z,25.4
2022-10-07T02:52:54.654Z,23.6
2022-10-07T02:54:02.835Z,25
2022-10-07T02:55:07.169Z,23.7
2022-10-07T02:56:11.342Z,26.1
2022-10-07T02:57:15.587Z,24.1
2022-10-07T02:58:19.809Z,23.7
2022-10-07T02:59:24.193Z,21.8
2022-10-07T03:00:28.642Z,22.3
2022-10-07T03:01:37.832Z,21.8
2022-10-07T03:02:42.109Z,24.1
2022-10-07T03:03:54.867Z,22.5
2022-10-07T03:04:59.138Z,24.7
2022-10-07T03:06:03.682Z,24.2
2022-10-07T03:07:08.009Z,25.5
2022-10-07T03:09:15.883Z,23.6
2022-10-07T03:10:20.350Z,23.8
2022-10-07T03:11:24.870Z,25.2
2022-10-07T03:12:29.136Z,23.3
2022-10-07T03:13:36.537Z,23.9
2022-10-07T03:14:40.841Z,24.5
2022-10-07T03:15:45.135Z,26.2
2022-10-07T03:16:49.425Z,26.6
2022-10-07T03:17:53.765Z,27.8
2022-10-07T03:19:02.577Z,30.7
2022-10-07T03:20:07.233Z,28.8
2022-10-07T03:21:11.651Z,27.5
2022-10-07T03:22:16.343Z,28.5
2022-10-07T03:23:20.536Z,29
2022-10-07T03:24:25.724Z,33.4
2022-10-07T03:25:29.951Z,29.9
2022-10-07T03:26:34.204Z,31.6
2022-10-07T03:27:38.525Z,29.7
2022-10-07T03:28:42.932Z,31.7
2022-10-07T03:29:47.049Z,27.5
2022-10-07T03:30:51.487Z,30.2
2022-10-07T03:31:55.815Z,30.2
2022-10-07T03:33:00.781Z,30.9
2022-10-07T03:34:05.051Z,32.3
2022-10-07T03:35:12.845Z,28.5
2022-10-07T03:36:17.380Z,31.5
2022-10-07T03:37:21.580Z,32.2
2022-10-07T03:38:25.832Z,29.5
2022-10-07T03:39:33.168Z,28.1
2022-10-07T03:40:37.648Z,27.2
2022-10-07T03:41:41.996Z,29.5
2022-10-07T03:42:48.071Z,30.1
2022-10-07T03:43:53.655Z,29
2022-10-07T03:44:57.924Z,28.2
2022-10-07T03:46:02.547Z,27.5
2022-10-07T03:47:10.477Z,26.7
2022-10-07T03:48:11.198Z,26.4
2022-10-07T03:49:15.852Z,24.3
2022-10-07T03:50:24.396Z,24.4
2022-10-07T03:51:28.598Z,23.7
2022-10-07T03:56:11.863Z,22
2022-10-07T04:00:54.780Z,23
2022-10-07T04:05:43.163Z,20.2
2022-10-07T04:06:57.533Z,22.1
2022-10-07T04:11:02.928Z,21.3
2022-10-07T04:19:24.667Z,27.5
2022-10-07T04:20:28.912Z,27.5
2022-10-07T04:23:54.087Z,31.2
2022-10-07T04:26:50.107Z,31.7
2022-10-07T04:29:43.755Z,30.1
2022-10-07T04:34:16.637Z,28.4
2022-10-07T04:36:34.280Z,29.5
2022-10-07T04:37:38.531Z,29.2
2022-10-07T04:40:35.324Z,27.7
2022-10-07T04:45:52.545Z,25.5
2022-10-07T04:52:13.239Z,24
2022-10-07T04:55:52.108Z,26.1
2022-10-07T05:00:35.184Z,26.1
2022-10-07T05:01:45.391Z,26.3
2022-10-07T05:09:52.768Z,26.4
2022-10-07T05:15:05.897Z,23.6
2022-10-07T05:16:10.296Z,23.7
2022-10-07T05:21:27.527Z,21
2022-10-07T05:25:41.191Z,23.4
2022-10-07T05:26:45.208Z,25.4
2022-10-07T05:29:04.691Z,24.6
2022-10-07T05:32:03.879Z,23.5
2022-10-07T05:33:03.935Z,26.4
2022-10-07T05:37:32.287Z,23.5
2022-10-07T05:42:30.071Z,21.3
2022-10-07T05:43:34.432Z,21.5
2022-10-07T05:53:06.032Z,19.2
2022-10-07T05:59:23.718Z,21.2
2022-10-07T06:08:01.456Z,20.7
2022-10-07T06:09:05.654Z,22.8
2022-10-07T06:14:41.211Z,22.3
2022-10-07T06:25:29.935Z,20.3
2022-10-07T06:26:34.339Z,21.3
2022-10-07T06:31:17.834Z,25.5
2022-10-07T06:32:25.160Z,26.9
2022-10-07T06:36:56.746Z,25
2022-10-07T06:39:56.298Z,27.5
2022-10-07T06:42:52.779Z,29.1
2022-10-07T06:49:36.134Z,28.5
2022-10-07T06:51:26.167Z,28.5
2022-10-07T06:52:31.919Z,29.6
2022-10-07T06:55:08.263Z,26.6
2022-10-07T06:56:13.017Z,28.9
2022-10-07T06:57:40.766Z,30
2022-10-07T07:00:12.255Z,29.8
2022-10-07T07:01:16.660Z,29.2
2022-10-07T07:03:32.233Z,30.1
2022-10-07T07:05:54.458Z,28
2022-10-07T07:07:00.293Z,27.2
2022-10-07T07:08:04.868Z,28.4
2022-10-07T07:09:09.021Z,27.9
2022-10-07T07:10:13.132Z,29.2
2022-10-07T07:11:17.192Z,28.2
2022-10-07T07:12:26.506Z,28.6
2022-10-07T07:13:30.517Z,27.5
2022-10-07T07:20:05.244Z,26.5
2022-10-07T07:21:10.327Z,28
2022-10-07T07:24:58.553Z,27.9
2022-10-07T07:26:02.671Z,25.1
2022-10-07T07:27:06.865Z,25
2022-10-07T07:30:50.300Z,25
2022-10-07T07:38:59.633Z,23.8
2022-10-07T07:40:09.564Z,23.5
2022-10-07T07:44:49.401Z,23.5
2022-10-07T07:47:17.732Z,23.9
2022-10-07T07:48:21.783Z,23.6
2022-10-07T07:51:00.356Z,25.6
2022-10-07T07:59:17.123Z,26.9
2022-10-07T08:02:50.566Z,24.5
2022-10-07T08:08:48.868Z,26.7
2022-10-07T08:13:24.341Z,27
2022-10-07T08:23:48.797Z,22.5
2022-10-07T08:29:49.105Z,25.5
2022-10-07T08:36:11.540Z,21.8
2022-10-07T08:38:43.336Z,24.7
2022-10-07T08:39:52.754Z,23.2
2022-10-07T08:50:06.032Z,23.3
2022-10-07T08:51:16.820Z,23.5
2022-10-07T08:55:21.660Z,25.4
2022-10-07T08:56:34.805Z,21
2022-10-07T08:57:38.906Z,20.3
2022-10-07T09:00:22.993Z,23.3
2022-10-07T09:01:29.843Z,20.1
2022-10-07T09:02:41.802Z,21
2022-10-07T09:03:56.084Z,23
2022-10-07T09:05:08.217Z,22.4
2022-10-07T09:06:17.464Z,22.4
2022-10-07T09:07:31.701Z,24.9
2022-10-07T09:10:57.832Z,22.8
2022-10-07T09:16:08.720Z,23.8
2022-10-07T09:22:25.080Z,21.7
2022-10-07T09:23:32.228Z,20.4
2022-10-07T09:24:36.348Z,23.2
2022-10-07T09:25:40.329Z,22.1
2022-10-07T09:29:05.132Z,24.3
2022-10-07T09:34:17.965Z,23
2022-10-07T09:35:24.550Z,21.3
2022-10-07T09:44:24.603Z,24.5
2022-10-07T09:48:41.952Z,19.4
2022-10-07T09:51:35.793Z,24.3
2022-10-07T09:52:40.504Z,21.5
2022-10-07T09:53:44.775Z,23
2022-10-07T09:54:58.596Z,23.5
2022-10-07T09:56:13.376Z,22.8
2022-10-07T09:57:19.018Z,23.1
2022-10-07T09:58:28.692Z,22.2
2022-10-07T09:59:33.225Z,24.3
2022-10-07T10:00:37.629Z,23.3
2022-10-07T10:01:42.058Z,21.6
2022-10-07T10:02:51.743Z,21.2
2022-10-07T10:03:58.760Z,22.8
2022-10-07T10:05:07.312Z,23.3
2022-10-07T10:06:19.693Z,26.9
2022-10-07T10:07:23.840Z,20.5
2022-10-07T10:08:31.404Z,19.5
2022-10-07T10:09:40.244Z,23.4
2022-10-07T10:10:54.303Z,23
2022-10-07T10:13:07.923Z,23
2022-10-07T10:14:12.158Z,22.4
2022-10-07T10:15:26.426Z,20.9
2022-10-07T10:16:36.557Z,21.2
2022-10-07T10:17:42.944Z,21.6
2022-10-07T10:18:47.261Z,21.9
2022-10-07T10:19:58.528Z,23.1
2022-10-07T10:21:12.833Z,22
2022-10-07T10:22:24.968Z,22.3
2022-10-07T10:23:32.593Z,19.4
2022-10-07T10:24:37.064Z,21
2022-10-07T10:25:46.716Z,19.7
2022-10-07T10:27:03.839Z,21.6
2022-10-07T10:28:13.425Z,20.8
2022-10-07T10:29:23.224Z,19.5
2022-10-07T10:30:34.992Z,22.6
2022-10-07T10:31:39.298Z,19.9
2022-10-07T10:32:52.056Z,21.7
2022-10-07T10:34:07.271Z,18.4
2022-10-07T10:35:16.888Z,19.1
2022-10-07T10:36:33.412Z,17.9
2022-10-07T10:37:37.549Z,18
2022-10-07T10:38:42.101Z,18.1
2022-10-07T10:39:51.512Z,17.5
2022-10-07T10:41:06.379Z,21.1
2022-10-07T10:42:16.239Z,17.5
2022-10-07T10:43:20.461Z,16.7
2022-10-07T10:44:24.814Z,16.7
2022-10-07T10:45:39.094Z,17.9
2022-10-07T10:46:53.408Z,18.5
2022-10-07T10:48:06.051Z,23
2022-10-07T10:49:20.453Z,18.1
2022-10-07T10:50:31.122Z,19.1
2022-10-07T10:51:43.933Z,17.7
2022-10-07T10:52:56.055Z,19.3
2022-10-07T10:54:05.197Z,17
2022-10-07T10:55:21.304Z,15.4
2022-10-07T10:56:34.366Z,16.9
2022-10-07T10:57:39.028Z,16.9
2022-10-07T10:58:51.086Z,16.7
2022-10-07T11:00:05.530Z,16.3
2022-10-07T11:01:20.172Z,15.4
2022-10-07T11:02:29.407Z,15.2
2022-10-07T11:03:38.504Z,15.4
2022-10-07T11:04:44.252Z,15.1
2022-10-07T11:05:52.538Z,16.3
2022-10-07T11:06:56.904Z,15.7
2022-10-07T11:08:09.257Z,14.4
2022-10-07T11:09:22.578Z,13.7
2022-10-07T11:10:35.044Z,16.6
2022-10-07T11:11:42.032Z,16.4
2022-10-07T11:12:47.407Z,18.1
2022-10-07T11:13:51.939Z,17.1
2022-10-07T11:15:02.092Z,16.1
2022-10-07T11:16:16.246Z,15.8
2022-10-07T11:17:26.659Z,13.8
2022-10-07T11:18:32.729Z,13
2022-10-07T11:19:45.165Z,15.8
2022-10-07T11:20:53.236Z,13.3
2022-10-07T11:21:57.657Z,13
2022-10-07T11:23:06.592Z,14.3
2022-10-07T11:24:21.344Z,14.9
2022-10-07T11:25:34.564Z,13.9
2022-10-07T11:26:38.958Z,13.7
2022-10-07T11:27:52.053Z,13.5
2022-10-07T11:28:56.143Z,13
2022-10-07T11:30:00.975Z,12.2
2022-10-07T11:31:13.265Z,10.7
2022-10-07T11:32:25.841Z,9.8
2022-10-07T11:35:33.229Z,9.5
2022-10-07T11:36:42.740Z,7.9
2022-10-07T11:37:57.385Z,12.3
2022-10-07T11:39:13.420Z,10.9
2022-10-07T11:40:17.630Z,9.4
2022-10-07T11:41:22.161Z,11.1
2022-10-07T11:42:32.371Z,12.6
2022-10-07T11:43:39.697Z,10.9
2022-10-07T11:44:44.085Z,12.9
2022-10-07T11:45:54.968Z,12.8
2022-10-07T11:48:54.264Z,12.8
2022-10-07T11:50:06.303Z,10.3
2022-10-07T11:51:14.383Z,12.5
2022-10-07T11:52:23.737Z,13.5
2022-10-07T11:53:28.288Z,11.8
2022-10-07T11:56:24.905Z,12.2
2022-10-07T11:57:29.300Z,12.3
2022-10-07T11:58:33.585Z,12.8
2022-10-07T11:59:38.184Z,13.1
2022-10-07T12:00:46.213Z,11.8
2022-10-07T12:01:51.188Z,10.6
2022-10-07T12:02:55.688Z,11.8
2022-10-07T12:04:05.188Z,10
2022-10-07T12:05:19.633Z,10.8
2022-10-07T12:06:34.338Z,13.5
2022-10-07T12:07:39.024Z,10.4
2022-10-07T12:10:35.948Z,12.7
2022-10-07T12:11:41.269Z,14.3
2022-10-07T12:12:45.762Z,11.7
2022-10-07T12:13:53.104Z,12.8
2022-10-07T12:14:59.680Z,12.1
2022-10-07T12:16:06.723Z,12.2
2022-10-07T12:17:21.601Z,12.8
2022-10-07T12:21:51.941Z,12.8
2022-10-07T12:24:54.308Z,16.4
2022-10-07T12:26:08.801Z,10.5
2022-10-07T12:27:23.517Z,9.2
2022-10-07T12:28:27.709Z,9.9
2022-10-07T12:29:31.880Z,11.1
2022-10-07T12:30:41.419Z,10.6
2022-10-07T12:31:50.759Z,9.9
2022-10-07T12:32:55.037Z,8.8
2022-10-07T12:33:59.820Z,11
2022-10-07T12:36:56.707Z,10.9
2022-10-07T12:38:11.123Z,10.8
2022-10-07T12:39:20.447Z,13.7
2022-10-07T12:40:28.019Z,13.5
2022-10-07T12:41:34.483Z,13.8
2022-10-07T12:42:36.520Z,10.7
2022-10-07T12:43:43.019Z,10.4
2022-10-07T12:44:52.327Z,10.2
2022-10-07T12:45:58.219Z,11.7
2022-10-07T12:50:26.947Z,10.9
2022-10-07T12:53:20.912Z,11.6
2022-10-07T12:54:25.758Z,12.4
2022-10-07T12:55:38.051Z,11.7
2022-10-07T12:56:42.423Z,12
2022-10-07T12:57:46.766Z,11.6
2022-10-07T12:58:50.896Z,12.3
2022-10-07T13:01:55.019Z,12.3
2022-10-07T13:03:01.975Z,9.5
2022-10-07T13:04:16.525Z,10.2
2022-10-07T13:05:24.423Z,9.5
2022-10-07T13:06:36.551Z,10.9
2022-10-07T13:07:51.167Z,10.3
2022-10-07T13:09:05.915Z,10.8
2022-10-07T13:10:17.107Z,11.7
2022-10-07T13:11:31.595Z,10.1
2022-10-07T13:12:44.137Z,11.1
2022-10-07T13:13:54.439Z,11.1
2022-10-07T13:15:06.756Z,12.6
2022-10-07T13:16:16.412Z,12.2
2022-10-07T13:17:26.043Z,11.8
2022-10-07T13:18:36.029Z,12.3
2022-10-07T13:19:40.536Z,11.6
2022-10-07T13:20:52.423Z,9.2
2022-10-07T13:22:01.011Z,11.6
2022-10-07T13:23:13.133Z,10.1
2022-10-07T13:24:22.077Z,8.7
2022-10-07T13:25:28.900Z,10.7
2022-10-07T13:26:33.435Z,9.4
2022-10-07T13:29:32.324Z,9.9
2022-10-07T13:30:36.638Z,10.8
2022-10-07T13:35:20.281Z,32.7
2022-10-07T13:36:30.129Z,27.9
2022-10-07T13:40:58.593Z,11.1
2022-10-07T13:42:15.977Z,66.7
2022-10-07T13:46:42.189Z,21.6
2022-10-07T13:55:41.996Z,20.4
2022-10-07T14:00:49.212Z,10.8
2022-10-07T14:05:22.319Z,11.3
2022-10-07T14:08:31.018Z,11.5
2022-10-07T14:09:35.202Z,11.9
2022-10-07T14:10:49.452Z,10.3
2022-10-07T14:14:21.047Z,14
2022-10-07T14:21:17.947Z,12.9
2022-10-07T14:22:22.154Z,14.4
2022-10-07T14:23:35.615Z,10.5
2022-10-07T14:24:40.003Z,11.5
2022-10-07T14:27:34.494Z,10.9
2022-10-07T14:28:38.814Z,11.3
2022-10-07T14:31:33.057Z,12.5
2022-10-07T14:32:42.567Z,12.9
2022-10-07T14:33:57.003Z,14.1
2022-10-07T14:35:16.656Z,13
2022-10-07T14:36:21.269Z,12.5
2022-10-07T14:37:29.657Z,14.5
2022-10-07T14:38:29.909Z,12.5
2022-10-07T14:39:34.235Z,11.2
2022-10-07T14:40:41.320Z,13.5
2022-10-07T14:41:45.652Z,12.5
2022-10-07T14:42:50.049Z,11.8
2022-10-07T14:43:54.416Z,13.7
2022-10-07T14:44:58.716Z,12.2
2022-10-07T14:46:03.165Z,15.1
2022-10-07T14:47:13.378Z,12.2
2022-10-07T14:48:17.668Z,12.9
2022-10-07T14:49:22.628Z,11.5
2022-10-07T14:50:28.436Z,11.4
2022-10-07T14:51:34.127Z,12.5
2022-10-07T14:52:42.137Z,11.6
2022-10-07T14:53:45.818Z,14.4
2022-10-07T14:54:52.497Z,10.6
2022-10-07T14:55:59.941Z,14.6
2022-10-07T14:57:06.029Z,15.4
2022-10-07T14:59:28.021Z,12.6
2022-10-07T15:00:39.577Z,12.6
2022-10-07T15:01:40.952Z,11.8
2022-10-07T15:02:45.618Z,11.8
2022-10-07T15:03:49.605Z,11
2022-10-07T15:04:54.241Z,15
2022-10-07T15:05:58.602Z,13.8
2022-10-07T15:07:02.921Z,10.4
2022-10-07T15:08:07.125Z,12.5
2022-10-07T15:09:11.400Z,16.5
2022-10-07T15:10:16.250Z,16.5
2022-10-07T15:11:21.217Z,16.8
2022-10-07T15:12:25.536Z,13.8
2022-10-07T15:13:29.877Z,10.5
2022-10-07T15:14:34.332Z,14.6
2022-10-07T15:15:38.701Z,12.3
2022-10-07T15:16:43.267Z,11.8
2022-10-07T15:17:47.815Z,11.3
2022-10-07T15:18:52.857Z,13.6
2022-10-07T15:21:09.265Z,13.5
2022-10-07T15:22:13.818Z,11.6
2022-10-07T15:23:19.353Z,12.1
2022-10-07T15:24:24.748Z,11.8
2022-10-07T15:25:29.393Z,12.2
2022-10-07T15:26:33.781Z,12.9
2022-10-07T15:27:38.416Z,15.5
2022-10-07T15:28:42.827Z,12.5
2022-10-07T15:29:47.506Z,13.4
2022-10-07T15:30:51.703Z,13.6
2022-10-07T15:32:04.896Z,14.9
2022-10-07T15:33:13.725Z,12
2022-10-07T15:34:18.460Z,12.8
2022-10-07T15:35:22.840Z,12.9
2022-10-07T15:36:29.605Z,12
2022-10-07T15:37:35.409Z,14.5
2022-10-07T15:38:39.918Z,11.1
2022-10-07T15:39:44.395Z,11.9
2022-10-07T15:40:48.845Z,14.5
2022-10-07T15:41:55.595Z,12.8
2022-10-07T15:43:01.313Z,12.9
2022-10-07T15:44:05.913Z,12.2
2022-10-07T15:45:12.817Z,12.3
2022-10-07T15:46:17.798Z,13.2
2022-10-07T15:47:22.440Z,11.4
2022-10-07T15:48:26.720Z,14.2
2022-10-07T15:49:30.893Z,12.8
2022-10-07T15:50:35.212Z,13.3
2022-10-07T15:51:39.889Z,12.1
2022-10-07T15:52:44.355Z,12.9
2022-10-07T15:53:48.412Z,10.5
2022-10-07T15:54:56.327Z,10.2
2022-10-07T15:56:01.572Z,16.7
2022-10-07T15:57:06.963Z,17.2
2022-10-07T15:58:11.556Z,16
2022-10-07T15:59:16.582Z,18.5
2022-10-07T16:00:21.442Z,14.9
2022-10-07T16:01:26.368Z,19.7
2022-10-07T16:02:33.443Z,19.7
2022-10-07T16:03:37.733Z,20.3
2022-10-07T16:04:45.336Z,15.6
2022-10-07T16:05:51.088Z,15.8
2022-10-07T16:06:58.113Z,16.3
2022-10-07T16:08:02.597Z,14.3
2022-10-07T16:09:06.999Z,18.8
2022-10-07T16:10:13.111Z,15.7
2022-10-07T16:11:16.008Z,15
2022-10-07T16:12:20.376Z,15
2022-10-07T16:13:25.033Z,14.4
2022-10-07T16:14:29.692Z,15.3
2022-10-07T16:15:34.581Z,15.3
2022-10-07T16:16:39.125Z,15.8
2022-10-07T16:17:44.060Z,13.4
2022-10-07T16:18:48.756Z,19.9
2022-10-07T16:19:53.004Z,16
2022-10-07T16:20:57.556Z,14.7
2022-10-07T16:22:05.106Z,14.9
2022-10-07T16:23:09.813Z,17.3
2022-10-07T16:24:14.000Z,19.6
2022-10-07T16:25:18.665Z,15.5
2022-10-07T16:26:23.059Z,17.8
2022-10-07T16:27:27.428Z,16.5
2022-10-07T16:28:32.014Z,15.5
2022-10-07T16:29:41.948Z,17.6
2022-10-07T16:30:52.178Z,16.2
2022-10-07T16:31:58.767Z,15.7
2022-10-07T16:33:04.211Z,17.8
2022-10-07T16:34:10.689Z,17.2
2022-10-07T16:35:19.584Z,24.6
2022-10-07T16:36:24.439Z,19.9
2022-10-07T16:37:29.188Z,19.8
2022-10-07T16:38:34.617Z,20.5
2022-10-07T16:43:37.908Z,20.4
2022-10-07T16:48:36.924Z,28.5
2022-10-07T16:53:29.838Z,29.9
2022-10-07T16:57:59.924Z,29.9
2022-10-07T17:02:42.792Z,22.3
2022-10-07T17:07:25.612Z,21.4
2022-10-07T17:12:58.349Z,21.6
2022-10-07T17:21:15.036Z,18.5
2022-10-07T17:26:28.734Z,18.5
2022-10-07T17:27:33.038Z,18.7
2022-10-07T17:36:16.410Z,19.5
2022-10-07T17:37:20.719Z,17.5
2022-10-07T17:45:29.210Z,21.3
2022-10-07T17:46:36.255Z,22.4
2022-10-07T17:54:46.801Z,22.5
2022-10-07T17:59:30.662Z,27.5
2022-10-07T18:16:25.400Z,26.8
2022-10-07T18:21:11.547Z,35.7
2022-10-07T18:26:44.534Z,41.2
2022-10-07T18:32:52.816Z,46.8
2022-10-07T18:37:36.160Z,52.1
2022-10-07T18:42:58.838Z,45.7
2022-10-07T18:47:57.051Z,45
2022-10-07T18:52:27.186Z,45
2022-10-07T18:57:21.355Z,43
2022-10-07T19:02:04.617Z,39.4
2022-10-07T19:06:47.744Z,31.2
2022-10-07T19:11:30.520Z,32.9
2022-10-07T19:17:03.317Z,32.5
2022-10-07T19:25:20.347Z,26.4
2022-10-07T19:26:29.494Z,28
2022-10-07T19:37:48.243Z,27.3
2022-10-07T19:44:09.550Z,27.5
2022-10-07T19:49:23.204Z,34.8
2022-10-07T19:54:06.094Z,36.6
2022-10-07T19:59:19.235Z,43.9
2022-10-07T20:03:49.480Z,38.6
2022-10-07T20:04:56.266Z,40
2022-10-07T20:09:29.718Z,36.2
2022-10-07T20:17:38.190Z,35.9
2022-10-07T20:22:20.965Z,41.4
2022-10-07T20:27:04.477Z,46
2022-10-07T20:43:59.978Z,53.3
2022-10-07T20:49:52.501Z,52.2
2022-10-07T20:54:35.305Z,53.8
2022-10-07T20:59:18.270Z,53
2022-10-07T21:04:51.097Z,50.9
2022-10-07T21:13:30.455Z,51.2
2022-10-07T21:14:34.682Z,59.5
2022-10-07T21:18:01.426Z,52.7
2022-10-07T21:23:14.202Z,54
2022-10-07T21:24:18.321Z,46.4
2022-10-07T21:32:54.884Z,47
2022-10-07T21:33:59.102Z,48.3
2022-10-07T21:42:35.486Z,52.2
2022-10-07T21:43:39.591Z,56.4
2022-10-07T21:59:00.882Z,45.7
2022-10-07T22:05:20.898Z,46.5
2022-10-07T22:10:03.969Z,37.6
2022-10-07T22:15:17.452Z,37.1
2022-10-07T22:19:11.829Z,35.7
2022-10-07T22:20:15.921Z,34
2022-10-07T22:24:40.645Z,38.3
2022-10-07T22:25:44.813Z,34.8
2022-10-07T22:31:17.645Z,32.3
2022-10-07T22:40:14.166Z,33.2
2022-10-07T22:41:18.279Z,32.9
2022-10-07T22:44:43.401Z,32.4
2022-10-07T22:49:29.723Z,29.8
2022-10-07T22:54:39.306Z,28
2022-10-07T22:55:43.393Z,27.1
2022-10-07T23:00:16.141Z,27.4
2022-10-07T23:08:26.099Z,25.6
2022-10-07T23:13:08.899Z,28.6
2022-10-07T23:25:32.354Z,34.2
2022-10-07T23:31:54.247Z,33.2
2022-10-07T23:37:07.085Z,30.1
2022-10-07T23:42:19.937Z,32.5
2022-10-07T23:47:02.542Z,29.2
2022-10-07T23:52:15.329Z,30.6
2022-10-07T23:56:44.885Z,26.5
